createdAt,value
2019-02-09T00:01:12.378Z,0
2019-02-09T00:04:18.386Z,0
2019-02-09T00:07:24.335Z,0
2019-02-09T00:10:30.297Z,0
2019-02-09T00:13:36.257Z,0
2019-02-09T00:16:42.319Z,0
2019-02-09T00:19:48.279Z,0
2019-02-09T00:22:54.186Z,0
2019-02-09T00:26:00.097Z,0
2019-02-09T00:29:05.967Z,0
2019-02-09T00:32:12.025Z,0
2019-02-09T00:35:17.883Z,0
2019-02-09T00:38:23.825Z,0
2019-02-09T00:41:29.789Z,0
2019-02-09T00:44:35.657Z,0
2019-02-09T00:47:44.451Z,0
2019-02-09T00:50:50.331Z,0
2019-02-09T00:53:56.391Z,0
2019-02-09T00:57:02.400Z,0
2019-02-09T01:00:08.276Z,0
2019-02-09T01:03:17.322Z,0
2019-02-09T01:06:23.378Z,0
2019-02-09T01:09:29.367Z,0
2019-02-09T01:12:35.327Z,0
2019-02-09T01:15:41.285Z,0
2019-02-09T01:18:47.259Z,0
2019-02-09T01:21:53.207Z,0
2019-02-09T01:24:59.167Z,0
2019-02-09T01:28:05.260Z,0
2019-02-09T01:31:11.082Z,0
2019-02-09T01:34:17.154Z,0
2019-02-09T01:37:23.113Z,0
2019-02-09T01:40:29.198Z,0
2019-02-09T01:43:35.062Z,0
2019-02-09T01:46:40.977Z,0
2019-02-09T01:49:46.938Z,0
2019-02-09T01:52:52.811Z,0
2019-02-09T01:55:58.761Z,0
2019-02-09T01:59:04.717Z,0
2019-02-09T02:02:10.685Z,0
2019-02-09T02:05:16.743Z,0
2019-02-09T02:08:22.711Z,0
2019-02-09T02:11:28.657Z,0
2019-02-09T02:14:34.549Z,0
2019-02-09T02:17:40.469Z,0
2019-02-09T02:20:46.578Z,0
2019-02-09T02:23:52.501Z,0
2019-02-09T02:26:58.520Z,0
2019-02-09T02:30:04.466Z,0
2019-02-09T02:33:10.478Z,0
2019-02-09T02:36:16.437Z,0
2019-02-09T02:39:22.374Z,0
2019-02-09T02:42:28.364Z,0
2019-02-09T02:45:34.422Z,0
2019-02-09T02:48:40.377Z,0
2019-02-09T02:51:46.449Z,0
2019-02-09T02:54:52.394Z,0
2019-02-09T02:57:58.470Z,0
2019-02-09T03:01:04.421Z,0
2019-02-09T03:04:10.673Z,0
2019-02-09T03:07:16.643Z,0
2019-02-09T03:10:22.602Z,0
2019-02-09T03:13:28.664Z,0
2019-02-09T03:16:34.625Z,0
2019-02-09T03:19:40.583Z,0
2019-02-09T03:22:46.545Z,0
2019-02-09T03:25:52.523Z,0
2019-02-09T03:28:58.563Z,0
2019-02-09T03:32:04.632Z,0
2019-02-09T03:35:10.588Z,0
2019-02-09T03:38:16.547Z,0
2019-02-09T03:41:22.504Z,0
2019-02-09T03:44:28.430Z,0
2019-02-09T03:47:34.545Z,0
2019-02-09T03:50:40.501Z,0
2019-02-09T03:53:46.549Z,0
2019-02-09T03:56:52.509Z,0
2019-02-09T03:59:58.472Z,0
2019-02-09T04:03:04.745Z,0
2019-02-09T04:06:10.700Z,0
2019-02-09T04:09:16.757Z,0
2019-02-09T04:12:22.715Z,0
2019-02-09T04:15:28.776Z,0
2019-02-09T04:18:34.649Z,0
2019-02-09T04:21:40.595Z,0
2019-02-09T04:24:46.554Z,0
2019-02-09T04:27:52.516Z,0
2019-02-09T04:31:09.400Z,0
2019-02-09T04:34:15.502Z,0
2019-02-09T04:37:21.862Z,0
2019-02-09T04:40:27.777Z,0
2019-02-09T04:43:33.779Z,0
2019-02-09T04:46:39.691Z,0
2019-02-09T04:49:45.709Z,0
2019-02-09T04:52:51.594Z,0
2019-02-09T04:55:57.627Z,0
2019-02-09T04:59:03.528Z,0
2019-02-09T05:02:09.407Z,0
2019-02-09T05:05:15.308Z,0
2019-02-09T05:08:21.346Z,0
2019-02-09T05:11:27.276Z,0
2019-02-09T05:14:33.386Z,0
2019-02-09T05:17:39.344Z,0
2019-02-09T05:20:45.299Z,0.1
2019-02-09T05:23:51.263Z,0.1
2019-02-09T05:27:00.019Z,0.2
2019-02-09T05:30:06.093Z,0.3
2019-02-09T05:33:12.111Z,0.3
2019-02-09T05:36:18.066Z,0.4
2019-02-09T05:39:24.026Z,0.5
2019-02-09T05:42:30.176Z,0.6
2019-02-09T05:45:36.148Z,0.8
2019-02-09T05:48:42.111Z,1.1
2019-02-09T05:51:47.984Z,1.3
2019-02-09T05:54:54.024Z,1.6
2019-02-09T05:57:59.985Z,1.8
2019-02-09T06:01:05.996Z,2
2019-02-09T06:04:12.023Z,2.2
2019-02-09T06:07:18.077Z,2.5
2019-02-09T06:10:24.039Z,2.7
2019-02-09T06:13:29.984Z,2.9
2019-02-09T06:16:36.154Z,3.2
2019-02-09T06:19:42.084Z,3.5
2019-02-09T06:22:48.020Z,3.8
2019-02-09T06:25:54.126Z,4.5
2019-02-09T06:29:00.186Z,5.1
2019-02-09T06:32:06.155Z,5.9
2019-02-09T06:35:12.112Z,6.9
2019-02-09T06:38:18.027Z,10.8
2019-02-09T06:41:23.906Z,11.2
2019-02-09T06:44:29.994Z,14.8
2019-02-09T06:47:35.885Z,19.3
2019-02-09T06:50:41.909Z,12.7
2019-02-09T06:53:47.869Z,12.4
2019-02-09T06:56:53.781Z,12.3
2019-02-09T06:59:59.787Z,13.7
2019-02-09T07:03:05.667Z,17.2
2019-02-09T07:06:14.492Z,14.9
2019-02-09T07:09:20.451Z,15.4
2019-02-09T07:12:26.394Z,15.3
2019-02-09T07:15:32.265Z,15.3
2019-02-09T07:18:38.208Z,15.3
2019-02-09T07:21:44.179Z,15.8
2019-02-09T07:24:50.128Z,16.2
2019-02-09T07:27:56.006Z,16.8
2019-02-09T07:31:01.942Z,18.5
2019-02-09T07:34:07.902Z,20.4
2019-02-09T07:37:13.863Z,22.6
2019-02-09T07:40:19.889Z,23.2
2019-02-09T07:43:25.784Z,23
2019-02-09T07:46:31.805Z,22.4
2019-02-09T07:49:40.017Z,22.3
2019-02-09T07:52:45.917Z,22.3
2019-02-09T07:55:51.904Z,23.2
2019-02-09T07:58:57.935Z,23.9
2019-02-09T08:02:07.787Z,24.8
2019-02-09T08:05:13.748Z,25.7
2019-02-09T08:08:19.706Z,25.2
2019-02-09T08:11:25.587Z,25.9
2019-02-09T08:14:31.525Z,220.3
2019-02-09T08:17:37.401Z,260.6
2019-02-09T08:20:43.350Z,267.8
2019-02-09T08:23:49.410Z,269.3
2019-02-09T08:26:55.295Z,270.7
2019-02-09T08:30:01.520Z,272.2
2019-02-09T08:33:07.482Z,272.2
2019-02-09T08:36:13.448Z,272.2
2019-02-09T08:39:19.471Z,272.2
2019-02-09T08:42:25.528Z,270.7
2019-02-09T08:45:31.486Z,270.7
2019-02-09T08:48:39.086Z,270.7
2019-02-09T08:51:45.104Z,270.7
2019-02-09T08:54:51.044Z,272.2
2019-02-09T08:57:57.013Z,272.2
2019-02-09T09:01:03.183Z,270.7
2019-02-09T09:04:09.140Z,270.7
2019-02-09T09:07:15.190Z,270.7
2019-02-09T09:10:24.148Z,272.2
2019-02-09T09:13:30.081Z,272.2
2019-02-09T09:16:36.041Z,270.7
2019-02-09T09:19:41.999Z,270.7
2019-02-09T09:22:51.031Z,272.2
2019-02-09T09:26:00.013Z,272.2
2019-02-09T09:29:05.925Z,272.2
2019-02-09T09:32:11.882Z,273.6
2019-02-09T09:35:17.843Z,273.6
2019-02-09T09:38:23.900Z,273.6
2019-02-09T09:41:29.856Z,273.6
2019-02-09T09:44:35.821Z,273.6
2019-02-09T09:47:41.881Z,275
2019-02-09T09:50:47.927Z,273.6
2019-02-09T09:53:56.442Z,273.6
2019-02-09T09:57:02.519Z,275
2019-02-09T10:00:08.482Z,276.5
2019-02-09T10:03:14.356Z,276.5
2019-02-09T10:06:20.299Z,276.5
2019-02-09T10:09:26.272Z,277.9
2019-02-09T10:12:32.233Z,277.9
2019-02-09T10:15:38.285Z,277.9
2019-02-09T10:18:44.302Z,277.9
2019-02-09T10:21:50.197Z,276.5
2019-02-09T10:24:56.077Z,275
2019-02-09T10:28:02.220Z,276.5
2019-02-09T10:31:08.307Z,275
2019-02-09T10:34:14.250Z,276.5
2019-02-09T10:37:20.208Z,273.6
2019-02-09T10:40:26.101Z,273.6
2019-02-09T10:43:32.126Z,273.6
2019-02-09T10:46:38.002Z,275
2019-02-09T10:49:43.942Z,283.7
2019-02-09T10:52:49.815Z,283.7
2019-02-09T10:55:55.761Z,283.7
2019-02-09T10:59:01.717Z,282.2
2019-02-09T11:02:07.677Z,280.8
2019-02-09T11:05:13.637Z,280.8
2019-02-09T11:08:19.512Z,280.8
2019-02-09T11:11:25.458Z,280.8
2019-02-09T11:14:31.327Z,280.8
2019-02-09T11:17:37.378Z,282.2
2019-02-09T11:20:43.556Z,280.8
2019-02-09T11:23:49.524Z,280.8
2019-02-09T11:26:55.454Z,280.8
2019-02-09T11:30:01.414Z,282.2
2019-02-09T11:33:07.783Z,279.4
2019-02-09T11:36:13.664Z,276.5
2019-02-09T11:39:19.716Z,279.4
2019-02-09T11:42:25.658Z,279.4
2019-02-09T11:45:31.542Z,279.4
2019-02-09T11:48:37.682Z,277.9
2019-02-09T11:51:43.558Z,279.4
2019-02-09T11:54:49.604Z,277.9
2019-02-09T11:57:55.480Z,277.9
2019-02-09T12:01:02.139Z,276.5
2019-02-09T12:04:08.109Z,277.9
2019-02-09T12:07:13.986Z,277.9
2019-02-09T12:10:19.918Z,277.9
2019-02-09T12:13:25.875Z,276.5
2019-02-09T12:16:31.837Z,277.9
2019-02-09T12:19:37.808Z,277.9
2019-02-09T12:22:43.716Z,277.9
2019-02-09T12:25:49.791Z,277.9
2019-02-09T12:28:55.668Z,277.9
2019-02-09T12:32:01.633Z,277.9
2019-02-09T12:35:07.507Z,277.9
2019-02-09T12:38:13.446Z,277.9
2019-02-09T12:41:19.404Z,276.5
2019-02-09T12:44:25.293Z,277.9
2019-02-09T12:47:31.413Z,276.5
2019-02-09T12:50:37.289Z,276.5
2019-02-09T12:53:43.247Z,275
2019-02-09T12:56:49.211Z,275
2019-02-09T12:59:55.262Z,275
2019-02-09T13:03:01.137Z,276.5
2019-02-09T13:06:07.093Z,276.5
2019-02-09T13:09:12.995Z,276.5
2019-02-09T13:12:19.005Z,275
2019-02-09T13:15:24.888Z,275
2019-02-09T13:18:30.822Z,275
2019-02-09T13:21:36.699Z,273.6
2019-02-09T13:24:42.752Z,273.6
2019-02-09T13:27:48.693Z,273.6
2019-02-09T13:30:54.677Z,273.6
2019-02-09T13:34:03.741Z,272.2
2019-02-09T13:37:09.613Z,272.2
2019-02-09T13:40:15.612Z,272.2
2019-02-09T13:43:21.568Z,270.7
2019-02-09T13:46:27.487Z,270.7
2019-02-09T13:49:33.398Z,270.7
2019-02-09T13:52:39.330Z,270.7
2019-02-09T13:55:45.416Z,270.7
2019-02-09T13:58:51.355Z,15.2
2019-02-09T14:01:57.434Z,14.9
2019-02-09T14:05:03.350Z,14.4
2019-02-09T14:08:09.548Z,14.1
2019-02-09T14:11:15.490Z,13.4
2019-02-09T14:14:21.367Z,12.6
2019-02-09T14:17:27.277Z,12.2
2019-02-09T14:20:33.294Z,11.5
2019-02-09T14:23:39.250Z,10.9
2019-02-09T14:26:45.266Z,10.3
2019-02-09T14:29:51.275Z,9.7
2019-02-09T14:32:57.237Z,9.1
2019-02-09T14:36:03.186Z,8.6
2019-02-09T14:39:09.156Z,8.2
2019-02-09T14:42:15.032Z,7.9
2019-02-09T14:45:21.073Z,7.6
2019-02-09T14:48:26.946Z,7.3
2019-02-09T14:51:32.897Z,7
2019-02-09T14:54:38.852Z,6.7
2019-02-09T14:57:44.925Z,6.3
2019-02-09T15:00:53.759Z,6
2019-02-09T15:04:05.838Z,5.6
2019-02-09T15:07:11.708Z,5.1
2019-02-09T15:10:17.715Z,4.6
2019-02-09T15:13:23.612Z,4.2
2019-02-09T15:16:29.575Z,3.9
2019-02-09T15:19:35.490Z,3.6
2019-02-09T15:22:41.485Z,3.2
2019-02-09T15:25:47.349Z,2.8
2019-02-09T15:28:53.407Z,2.5
2019-02-09T15:31:59.279Z,2.2
2019-02-09T15:35:05.230Z,1.8
2019-02-09T15:38:11.195Z,1.4
2019-02-09T15:41:17.270Z,1.1
2019-02-09T15:44:23.211Z,0.8
2019-02-09T15:47:29.107Z,0.5
2019-02-09T15:50:35.179Z,0.4
2019-02-09T15:53:41.188Z,0.2
2019-02-09T15:56:47.230Z,0.1
2019-02-09T15:59:53.108Z,0.1
2019-02-09T16:02:59.129Z,0.1
2019-02-09T16:06:05.131Z,0
2019-02-09T16:09:11.037Z,0
2019-02-09T16:12:16.950Z,0
2019-02-09T16:15:22.885Z,0
2019-02-09T16:18:28.873Z,0
2019-02-09T16:21:34.921Z,0
2019-02-09T16:24:40.860Z,0
2019-02-09T16:27:46.826Z,0
2019-02-09T16:30:53.004Z,0
2019-02-09T16:33:59.084Z,0
2019-02-09T16:37:04.958Z,0
2019-02-09T16:40:10.995Z,0
2019-02-09T16:43:16.865Z,0
2019-02-09T16:46:22.816Z,0
2019-02-09T16:49:28.773Z,0
2019-02-09T16:52:37.052Z,0
2019-02-09T16:55:43.062Z,0
2019-02-09T16:58:49.063Z,0
2019-02-09T17:01:54.980Z,0
2019-02-09T17:05:00.936Z,0
2019-02-09T17:08:06.987Z,0
2019-02-09T17:11:12.943Z,0
2019-02-09T17:14:18.986Z,0
2019-02-09T17:17:24.965Z,0
2019-02-09T17:20:30.838Z,0
2019-02-09T17:23:36.887Z,0
2019-02-09T17:26:42.828Z,0
2019-02-09T17:29:48.802Z,0
2019-02-09T17:32:54.679Z,0
2019-02-09T17:36:00.625Z,0
2019-02-09T17:39:06.688Z,0
2019-02-09T17:42:12.594Z,0
2019-02-09T17:45:21.115Z,0
2019-02-09T17:48:26.991Z,0
2019-02-09T17:51:32.987Z,0
2019-02-09T17:54:38.849Z,0
2019-02-09T17:57:44.799Z,0
2019-02-09T18:00:50.865Z,0
2019-02-09T18:03:56.745Z,0
2019-02-09T18:07:04.522Z,0
2019-02-09T18:10:10.392Z,0
2019-02-09T18:13:16.352Z,0
2019-02-09T18:16:22.302Z,0
2019-02-09T18:19:28.360Z,0
2019-02-09T18:22:34.321Z,0.4
2019-02-09T18:25:40.395Z,0.8
2019-02-09T18:28:46.277Z,0
2019-02-09T18:31:52.207Z,0
2019-02-09T18:34:59.291Z,0
2019-02-09T18:38:05.255Z,0
2019-02-09T18:41:11.114Z,0
2019-02-09T18:44:17.052Z,0
2019-02-09T18:47:23.019Z,0
2019-02-09T18:50:28.886Z,0
2019-02-09T18:53:34.765Z,0
2019-02-09T18:56:40.900Z,0
2019-02-09T18:59:46.963Z,0
2019-02-09T19:02:56.023Z,0
2019-02-09T19:06:04.905Z,0
2019-02-09T19:09:10.783Z,0
2019-02-09T19:12:16.743Z,0
2019-02-09T19:15:22.702Z,0
2019-02-09T19:18:28.665Z,0
2019-02-09T19:21:34.531Z,0
2019-02-09T19:24:40.470Z,0
2019-02-09T19:27:46.343Z,0
2019-02-09T19:30:52.366Z,0
2019-02-09T19:33:58.457Z,0
2019-02-09T19:37:04.414Z,0
2019-02-09T19:40:10.562Z,0
2019-02-09T19:43:16.538Z,0
2019-02-09T19:46:22.495Z,0
2019-02-09T19:49:31.327Z,0
2019-02-09T19:52:37.235Z,0
2019-02-09T19:55:43.243Z,0
2019-02-09T19:58:49.187Z,0
2019-02-09T20:01:55.155Z,0
2019-02-09T20:05:01.028Z,0
2019-02-09T20:08:06.973Z,0
2019-02-09T20:11:12.989Z,0
2019-02-09T20:14:18.906Z,0
2019-02-09T20:17:24.862Z,0
2019-02-09T20:20:30.725Z,0
2019-02-09T20:23:36.684Z,0
2019-02-09T20:26:42.635Z,0
2019-02-09T20:29:48.604Z,0
2019-02-09T20:32:54.461Z,0
2019-02-09T20:36:00.407Z,0
2019-02-09T20:39:07.802Z,0
2019-02-09T20:42:13.765Z,0
2019-02-09T20:45:19.731Z,0
2019-02-09T20:48:25.695Z,0
2019-02-09T20:51:31.651Z,0
2019-02-09T20:54:37.725Z,0
2019-02-09T20:57:45.556Z,0
2019-02-09T21:00:51.479Z,0
2019-02-09T21:03:57.626Z,0
2019-02-09T21:07:03.499Z,0
2019-02-09T21:10:09.449Z,0
2019-02-09T21:13:15.317Z,0
2019-02-09T21:16:21.259Z,0
2019-02-09T21:19:27.134Z,0
2019-02-09T21:22:33.076Z,0
2019-02-09T21:25:39.045Z,0
2019-02-09T21:28:45.002Z,0
2019-02-09T21:31:50.908Z,0
2019-02-09T21:34:56.921Z,0
2019-02-09T21:38:02.902Z,0
2019-02-09T21:41:09.043Z,0
2019-02-09T21:44:15.049Z,0
2019-02-09T21:47:20.954Z,0
2019-02-09T21:50:26.848Z,0
2019-02-09T21:53:32.782Z,0
2019-02-09T21:56:38.737Z,0
2019-02-09T21:59:44.798Z,0
2019-02-09T22:02:50.751Z,0
2019-02-09T22:05:56.711Z,0
2019-02-09T22:09:02.769Z,0
2019-02-09T22:12:09.099Z,0
2019-02-09T22:15:15.318Z,0
2019-02-09T22:18:21.487Z,0
2019-02-09T22:21:28.107Z,0
2019-02-09T22:24:34.315Z,0
2019-02-09T22:27:40.274Z,0
2019-02-09T22:30:46.845Z,0
2019-02-09T22:33:52.933Z,0
2019-02-09T22:36:58.975Z,0
2019-02-09T22:40:05.889Z,0
2019-02-09T22:43:11.864Z,0
2019-02-09T22:46:17.740Z,0
2019-02-09T22:49:23.783Z,0
2019-02-09T22:52:29.695Z,0
2019-02-09T22:55:35.652Z,0
2019-02-09T22:58:41.611Z,0
2019-02-09T23:01:47.570Z,0
2019-02-09T23:04:53.532Z,0
2019-02-09T23:07:59.440Z,0
2019-02-09T23:11:05.551Z,0
2019-02-09T23:14:11.515Z,0
2019-02-09T23:17:17.469Z,0
2019-02-09T23:20:23.341Z,0
2019-02-09T23:23:29.390Z,0
2019-02-09T23:26:35.261Z,0
2019-02-09T23:29:41.138Z,0
2019-02-09T23:32:47.059Z,0
2019-02-09T23:35:53.021Z,0
2019-02-09T23:38:58.982Z,0
2019-02-09T23:42:04.854Z,0
2019-02-09T23:45:10.799Z,0
2019-02-09T23:48:16.673Z,0
2019-02-09T23:51:22.612Z,0
2019-02-09T23:54:28.484Z,0
2019-02-09T23:57:34.429Z,0
